Aeroporto :
LOGIN :

Iscrizione | Disclaimer

   EN    FR    IT 

 










Sommario :    VFR   VFR Marginale   IFR   IFR Intensivo   IFR Molto Intensivo
Visibilità : 
Base nubi : 
>= 8 km
>= 3000ft
5 / 8 km
1000 / 3000 ft
1500m / 5 km
500 / 1000 ft
800 / 1500m
200 / 500 ft
< 800m
< 200 ft
Simboli :   Temporali  Nebbia  Neve Forte  Precipitazioni Forti  Vento > 20 kt
SIGMETs :   Varie  Temporali  Ghiacco  Turbolenza  Onda orograficha  Ceneri Vulcaniche







- Altitudine del aeroporto : 978 ft
- Codice IATA : LNZ


LOWL - Linz

ULTIMO METAR :
  • 151750Z VRB02KT CAVOK 23/11 Q1014 NOSIG

METARs OBSOLETI :
  • 151720Z AUTO 07003KT 9999 FEW060 BKN100 23/11 Q1014 NOSIG
  • 151650Z AUTO 06005KT 030V110 9999 FEW080 BKN090 23/10 Q1014 TEMPO TL1715 36007KT SHRA
  • 151620Z AUTO 10005KT 050V140 9999 FEW034 SCT060 BKN100 23/10 Q1014 NOSIG
  • 151550Z 14003KT 090V250 9999 FEW050 SCT100 24/10 Q1014 NOSIG
  • 151520Z VRB03KT 9999 FEW050 24/10 Q1014 NOSIG

TAF TAF LOWL
Valido dal 15 a 18 ore il 16 a 18 ore UTC


151715Z 1518/1618 VRB02KT CAVOK TX24/1615Z TN13/1603Z
TEMPO 1602/1605 1200 BCFG NSC
BECMG 1608/1610 29012KT 9999 SCT040
Nessun NOTAM noto per questo aeroporto.



MetMap, La meteo Aeronautica in un colpo d'occhio ! - Copyright ORBIFLY Dicembre 2007 - Disclaimer

ORBIFLY MET'MAP TEAM :

Programmazione e sviluppo : Alexandra Zaïnal
Concezione e sviluppo : Baudouin d'Aumeries
Co-Programmazione e sviluppo : Marc-Olivier Méhu
Supporto tecnico e logistico : Manuel Goepfert
Aiuto per la traduzione : Arnaldo La Scala

Contatto : metmap@orbifly.com




FONTI E CREDITI :

   NOAA